Time;durP1;ratioP1;P1;durP2;ratioP2;P2;SDS_P1;SDS_P2;PMS_P1;PMS_P2;Temp;Humidity;BMP_temperature;BMP_pressure;BME280_temperature;BME280_humidity;BME280_pressure;Samples;Min_cycle;Max_cycle;Signal;HPM_P1;HPM_P2
2022/05/12 00:02:10;;;;;;;5.85;3.90;;;;;;;;;;5035971;28;20476;-77
2022/05/12 00:04:37;;;;;;;8.52;4.90;;;;;;;;;;5052795;28;20036;-79
2022/05/12 00:07:03;;;;;;;7.53;4.38;;;;;;;;;;5052664;28;20051;-77
2022/05/12 00:09:29;;;;;;;6.47;4.47;;;;;;;;;;5053893;28;20037;-78
2022/05/12 00:11:56;;;;;;;4.38;3.97;;;;;;;;;;5054414;28;20164;-76
2022/05/12 00:14:21;;;;;;;6.70;4.20;;;;;;;;;;5052138;28;20029;-77
2022/05/12 00:16:47;;;;;;;7.13;4.85;;;;;;;;;;5053927;28;20036;-77
2022/05/12 00:19:13;;;;;;;6.00;5.40;;;;;;;;;;5052328;28;20166;-77
2022/05/12 00:21:39;;;;;;;5.82;4.50;;;;;;;;;;5035324;28;20496;-76
2022/05/12 00:24:05;;;;;;;6.80;4.05;;;;;;;;;;5052177;28;20024;-76
2022/05/12 00:26:36;;;;;;;7.95;4.43;;;;;;;;;;5052318;28;20025;-79
2022/05/12 00:29:05;;;;;;;6.32;4.68;;;;;;;;;;5052513;28;20455;-77
2022/05/12 00:31:32;;;;;;;6.68;4.30;;;;;;;;;;5052067;28;20029;-77
2022/05/12 00:33:58;;;;;;;6.35;4.50;;;;;;;;;;5035497;28;20067;-78
2022/05/12 00:36:24;;;;;;;6.50;4.43;;;;;;;;;;5053483;28;20069;-77
2022/05/12 00:38:49;;;;;;;6.80;4.32;;;;;;;;;;5052391;28;20106;-77
2022/05/12 00:41:15;;;;;;;7.28;4.47;;;;;;;;;;5035263;28;20098;-77
2022/05/12 00:44:04;;;;;;;8.85;4.45;;;;;;;;;;5053105;28;20523;-78
2022/05/12 00:46:32;;;;;;;6.93;4.82;;;;;;;;;;5034796;28;20021;-77
2022/05/12 00:49:03;;;;;;;7.68;4.88;;;;;;;;;;5053087;28;20389;-77
2022/05/12 00:51:37;;;;;;;7.55;4.43;;;;;;;;;;5035370;28;20047;-77
2022/05/12 00:54:07;;;;;;;6.43;4.22;;;;;;;;;;5053008;28;20059;-78
2022/05/12 00:56:35;;;;;;;8.25;5.18;;;;;;;;;;5053130;28;20021;-77
2022/05/12 00:59:06;;;;;;;8.88;4.78;;;;;;;;;;5050990;28;20039;-79
2022/05/12 01:01:32;;;;;;;7.38;4.63;;;;;;;;;;5034600;28;20456;-76
2022/05/12 01:03:59;;;;;;;8.20;4.68;;;;;;;;;;5053163;28;20029;-77
2022/05/12 01:06:25;;;;;;;7.38;4.65;;;;;;;;;;5051699;28;20025;-77
2022/05/12 01:08:50;;;;;;;9.68;4.35;;;;;;;;;;5035464;28;20083;-78
2022/05/12 01:11:18;;;;;;;11.48;4.35;;;;;;;;;;5051628;28;20542;-78
2022/05/12 01:13:52;;;;;;;6.82;5.43;;;;;;;;;;5051937;28;20032;-77
2022/05/12 01:16:39;;;;;;;7.32;4.22;;;;;;;;;;5053059;28;20071;-79
2022/05/12 01:19:06;;;;;;;5.93;4.75;;;;;;;;;;5051530;28;20032;-76
2022/05/12 01:21:33;;;;;;;7.13;4.40;;;;;;;;;;5051405;28;20477;-77
2022/05/12 01:24:00;;;;;;;9.73;4.55;;;;;;;;;;5053090;28;20480;-76
2022/05/12 01:26:28;;;;;;;7.05;4.65;;;;;;;;;;5051717;28;20397;-78
2022/05/12 01:28:54;;;;;;;5.05;4.00;;;;;;;;;;5052383;28;20520;-77
2022/05/12 01:31:21;;;;;;;8.30;4.90;;;;;;;;;;5051191;28;20047;-77
2022/05/12 01:33:47;;;;;;;5.38;4.43;;;;;;;;;;5051178;28;20025;-77
2022/05/12 01:36:12;;;;;;;7.30;5.07;;;;;;;;;;5051863;28;20531;-75
2022/05/12 01:38:38;;;;;;;4.47;4.03;;;;;;;;;;5051056;28;20112;-77
2022/05/12 01:41:05;;;;;;;5.90;5.00;;;;;;;;;;5050732;28;20544;-75
2022/05/12 01:43:31;;;;;;;5.22;4.72;;;;;;;;;;5050989;28;20029;-77
2022/05/12 01:46:00;;;;;;;5.47;4.55;;;;;;;;;;5052056;28;20031;-77
2022/05/12 01:48:25;;;;;;;8.77;5.10;;;;;;;;;;5052620;28;20476;-77
2022/05/12 01:50:52;;;;;;;6.07;4.40;;;;;;;;;;5052423;28;20087;-76
2022/05/12 01:53:18;;;;;;;7.72;4.50;;;;;;;;;;5051011;28;20029;-79
2022/05/12 01:55:43;;;;;;;6.25;4.63;;;;;;;;;;5034561;28;20098;-76
2022/05/12 01:58:10;;;;;;;5.93;4.30;;;;;;;;;;5052048;28;20029;-78
2022/05/12 02:00:36;;;;;;;6.40;4.22;;;;;;;;;;5034345;28;20127;-77
2022/05/12 02:03:02;;;;;;;5.47;4.63;;;;;;;;;;5051846;28;20110;-77
2022/05/12 02:05:30;;;;;;;8.13;4.78;;;;;;;;;;5051099;28;20451;-76
2022/05/12 02:07:56;;;;;;;5.25;4.28;;;;;;;;;;5050667;28;20499;-79
2022/05/12 02:10:25;;;;;;;7.63;4.78;;;;;;;;;;5034325;28;20021;-76
2022/05/12 02:12:51;;;;;;;7.00;4.82;;;;;;;;;;5056044;28;20025;-77
2022/05/12 02:15:17;;;;;;;8.02;4.60;;;;;;;;;;5054525;28;20029;-77
2022/05/12 02:17:43;;;;;;;6.05;4.57;;;;;;;;;;5054637;28;20021;-78
2022/05/12 02:20:11;;;;;;;8.80;4.55;;;;;;;;;;5056262;28;20113;-77
2022/05/12 02:22:37;;;;;;;5.40;4.55;;;;;;;;;;5055347;28;20389;-77
2022/05/12 02:25:04;;;;;;;8.60;4.88;;;;;;;;;;5056155;28;20017;-76
2022/05/12 02:27:30;;;;;;;8.00;4.72;;;;;;;;;;5055795;28;20032;-77
2022/05/12 02:29:55;;;;;;;6.03;4.65;;;;;;;;;;5037771;28;20226;-78
2022/05/12 02:32:21;;;;;;;9.30;5.10;;;;;;;;;;5055293;28;20426;-77
2022/05/12 02:34:46;;;;;;;5.05;4.40;;;;;;;;;;5054705;28;20025;-79
2022/05/12 02:37:12;;;;;;;5.68;4.97;;;;;;;;;;5055407;28;20400;-78
2022/05/12 02:39:43;;;;;;;5.47;4.78;;;;;;;;;;5037671;28;20043;-76
2022/05/12 02:42:09;;;;;;;15.85;4.97;;;;;;;;;;5054078;28;20020;-77
2022/05/12 02:44:36;;;;;;;9.07;4.97;;;;;;;;;;5055922;28;20068;-77
2022/05/12 02:47:03;;;;;;;8.68;4.93;;;;;;;;;;5055327;28;20025;-76
2022/05/12 02:49:29;;;;;;;6.78;5.20;;;;;;;;;;5054531;28;20025;-77
2022/05/12 02:51:54;;;;;;;6.20;4.65;;;;;;;;;;5038517;28;20098;-76
2022/05/12 02:54:20;;;;;;;8.95;4.72;;;;;;;;;;5037430;28;20021;-78
2022/05/12 02:56:47;;;;;;;5.28;4.22;;;;;;;;;;5038193;28;20029;-76
2022/05/12 02:59:13;;;;;;;10.52;4.53;;;;;;;;;;5054826;28;20025;-77
2022/05/12 03:01:38;;;;;;;7.03;4.88;;;;;;;;;;5053935;28;20032;-78
2022/05/12 03:04:05;;;;;;;7.15;4.63;;;;;;;;;;5055552;28;20473;-78
2022/05/12 03:06:31;;;;;;;20.33;6.65;;;;;;;;;;5053653;28;20021;-78
2022/05/12 03:08:58;;;;;;;8.70;5.00;;;;;;;;;;5053905;28;20065;-77
2022/05/12 03:11:25;;;;;;;10.20;4.63;;;;;;;;;;5055450;28;20021;-76
2022/05/12 03:13:51;;;;;;;7.22;4.75;;;;;;;;;;5053291;28;20128;-79
2022/05/12 03:16:18;;;;;;;31.70;6.80;;;;;;;;;;5054049;28;20093;-77
2022/05/12 03:18:46;;;;;;;9.13;5.18;;;;;;;;;;5054753;28;20469;-77
2022/05/12 03:21:15;;;;;;;5.75;4.40;;;;;;;;;;5053114;28;20029;-77
2022/05/12 03:23:42;;;;;;;6.25;4.63;;;;;;;;;;5052399;28;20032;-78
2022/05/12 03:26:09;;;;;;;5.53;5.03;;;;;;;;;;5053017;28;20384;-78
2022/05/12 03:28:35;;;;;;;8.50;4.53;;;;;;;;;;5036632;28;20310;-79
2022/05/12 03:31:01;;;;;;;7.07;5.25;;;;;;;;;;5054910;28;20021;-78
2022/05/12 03:33:27;;;;;;;5.90;4.90;;;;;;;;;;5053332;28;20040;-77
2022/05/12 03:35:53;;;;;;;6.43;4.50;;;;;;;;;;5036435;28;20024;-77
2022/05/12 03:38:19;;;;;;;8.48;4.68;;;;;;;;;;5036753;28;20049;-78
2022/05/12 03:40:45;;;;;;;8.43;4.72;;;;;;;;;;5054830;28;20044;-77
2022/05/12 03:44:46;;;;;;;13.27;5.60;;;;;;;;;;5054646;28;20029;-77
2022/05/12 03:45:58;;;;;;;4.97;4.47;;;;;;;;;;5055031;28;20025;-77
2022/05/12 03:48:23;;;;;;;9.75;5.45;;;;;;;;;;5054771;28;20017;-78
2022/05/12 03:50:49;;;;;;;5.05;4.50;;;;;;;;;;5037417;28;20116;-77
2022/05/12 03:53:14;;;;;;;8.25;4.68;;;;;;;;;;5053521;28;20036;-78
2022/05/12 03:55:40;;;;;;;9.02;4.78;;;;;;;;;;5054333;28;20389;-77
2022/05/12 03:58:05;;;;;;;7.13;5.78;;;;;;;;;;5054117;28;20135;-77
2022/05/12 04:00:32;;;;;;;5.90;4.25;;;;;;;;;;5069585;28;20126;-77
2022/05/12 04:02:58;;;;;;;8.02;6.07;;;;;;;;;;5036427;28;20028;-76
2022/05/12 04:05:25;;;;;;;4.95;4.50;;;;;;;;;;5054134;28;20385;-78
2022/05/12 04:07:52;;;;;;;10.30;4.55;;;;;;;;;;5052445;28;20017;-77
2022/05/12 04:10:18;;;;;;;7.10;4.32;;;;;;;;;;5069599;28;20469;-77
2022/05/12 04:12:43;;;;;;;8.77;5.93;;;;;;;;;;5069207;28;20032;-78
2022/05/12 04:15:09;;;;;;;9.15;4.47;;;;;;;;;;5053297;28;20029;-78
2022/05/12 04:17:35;;;;;;;5.80;4.43;;;;;;;;;;5052776;28;20025;-76
2022/05/12 04:20:06;;;;;;;5.13;4.10;;;;;;;;;;5052910;28;20477;-76
2022/05/12 04:22:33;;;;;;;10.23;5.28;;;;;;;;;;5052789;28;20025;-78
2022/05/12 04:24:59;;;;;;;5.85;4.63;;;;;;;;;;5053771;28;20032;-77
2022/05/12 04:27:25;;;;;;;12.45;4.40;;;;;;;;;;5054090;28;20021;-78
2022/05/12 04:29:51;;;;;;;6.50;4.90;;;;;;;;;;5052359;28;20031;-77
2022/05/12 04:32:16;;;;;;;9.70;4.05;;;;;;;;;;5053109;28;20119;-76
2022/05/12 04:37:28;;;;;;;9.35;4.20;;;;;;;;;;5066354;28;20330;-77
2022/05/12 04:39:53;;;;;;;5.40;4.53;;;;;;;;;;5074059;28;20089;-77
2022/05/12 04:42:19;;;;;;;6.72;4.63;;;;;;;;;;5055984;28;20025;-77
2022/05/12 04:44:45;;;;;;;6.00;4.43;;;;;;;;;;5073597;28;20043;-77
2022/05/12 04:47:10;;;;;;;6.57;4.75;;;;;;;;;;5072123;28;20119;-77
2022/05/12 04:49:36;;;;;;;7.45;4.00;;;;;;;;;;5074005;28;20080;-77
2022/05/12 04:52:02;;;;;;;6.93;3.65;;;;;;;;;;5056163;28;20024;-77
2022/05/12 04:54:29;;;;;;;10.10;4.05;;;;;;;;;;5073080;28;20032;-76
2022/05/12 04:56:56;;;;;;;8.48;4.00;;;;;;;;;;5073138;28;20028;-76
2022/05/12 04:59:22;;;;;;;6.55;4.60;;;;;;;;;;5073867;28;20052;-78
2022/05/12 05:01:48;;;;;;;5.82;3.88;;;;;;;;;;5055186;28;20029;-76
2022/05/12 05:04:13;;;;;;;5.35;4.22;;;;;;;;;;5072631;28;20028;-76
2022/05/12 05:06:39;;;;;;;4.53;3.92;;;;;;;;;;5072228;28;20457;-78
2022/05/12 05:09:05;;;;;;;8.00;3.63;;;;;;;;;;5055239;28;20063;-77
2022/05/12 05:11:33;;;;;;;6.57;4.20;;;;;;;;;;5072551;28;20062;-77
2022/05/12 05:13:59;;;;;;;7.32;4.20;;;;;;;;;;5058414;28;20055;-78
2022/05/12 05:16:25;;;;;;;8.77;4.15;;;;;;;;;;5034880;28;20068;-76
2022/05/12 05:18:50;;;;;;;6.60;4.43;;;;;;;;;;5043889;28;20024;-77
2022/05/12 05:21:16;;;;;;;9.90;4.20;;;;;;;;;;5050882;28;20074;-77
2022/05/12 05:23:41;;;;;;;7.90;3.70;;;;;;;;;;5035180;28;20124;-76
2022/05/12 05:26:08;;;;;;;5.47;4.10;;;;;;;;;;5033712;28;20052;-77
2022/05/12 05:28:35;;;;;;;8.27;3.97;;;;;;;;;;5034273;28;20055;-78
2022/05/12 05:31:01;;;;;;;4.80;4.30;;;;;;;;;;5034316;28;20021;-77
2022/05/12 05:33:26;;;;;;;5.30;4.25;;;;;;;;;;5052892;28;20594;-79
2022/05/12 05:35:52;;;;;;;8.25;4.28;;;;;;;;;;5032282;28;20492;-78
2022/05/12 05:38:18;;;;;;;5.43;3.70;;;;;;;;;;5051170;28;20079;-78
2022/05/12 05:40:44;;;;;;;6.75;4.28;;;;;;;;;;5035131;28;20127;-78
2022/05/12 05:43:09;;;;;;;6.97;4.68;;;;;;;;;;5052361;28;20033;-79
2022/05/12 05:45:35;;;;;;;5.68;4.40;;;;;;;;;;5051072;28;20036;-79
2022/05/12 05:48:06;;;;;;;6.45;4.57;;;;;;;;;;5051474;28;20485;-78
2022/05/12 05:53:23;;;;;;;5.15;4.38;;;;;;;;;;5051989;28;20107;-76
2022/05/12 05:53:24;;;;;;;7.13;4.22;;;;;;;;;;5051918;28;20040;-78
2022/05/12 05:55:50;;;;;;;8.57;4.32;;;;;;;;;;5052685;28;20028;-78
2022/05/12 05:58:16;;;;;;;6.32;4.15;;;;;;;;;;5034848;28;20365;-78
2022/05/12 06:00:45;;;;;;;11.70;4.97;;;;;;;;;;5053574;28;20055;-80
2022/05/12 06:03:11;;;;;;;9.18;4.68;;;;;;;;;;5035348;28;20147;-79
2022/05/12 06:05:37;;;;;;;6.95;4.15;;;;;;;;;;5053608;28;20035;-79
2022/05/12 06:08:04;;;;;;;5.75;4.25;;;;;;;;;;5053693;28;20029;-78
2022/05/12 06:10:30;;;;;;;12.82;4.57;;;;;;;;;;5049266;28;20090;-77
2022/05/12 06:12:57;;;;;;;6.38;3.70;;;;;;;;;;5052419;28;20040;-80
2022/05/12 06:15:25;;;;;;;4.32;3.80;;;;;;;;;;5045281;28;20044;-79
2022/05/12 06:17:51;;;;;;;8.50;3.85;;;;;;;;;;5048765;28;20036;-81
2022/05/12 06:20:17;;;;;;;5.40;4.30;;;;;;;;;;5047836;28;20033;-79
2022/05/12 06:22:44;;;;;;;9.15;5.40;;;;;;;;;;5046243;28;20353;-78
2022/05/12 06:25:11;;;;;;;6.38;3.92;;;;;;;;;;5046575;28;20029;-80
2022/05/12 06:27:37;;;;;;;8.80;3.70;;;;;;;;;;5046994;28;20024;-81
2022/05/12 06:30:05;;;;;;;6.28;4.25;;;;;;;;;;5039403;28;20434;-80
2022/05/12 06:32:31;;;;;;;6.75;3.88;;;;;;;;;;5046114;28;20102;-80
2022/05/12 06:34:57;;;;;;;4.80;3.55;;;;;;;;;;5046981;28;20048;-80
2022/05/12 06:37:23;;;;;;;10.52;4.32;;;;;;;;;;5048173;28;20048;-78
2022/05/12 06:39:49;;;;;;;6.45;4.25;;;;;;;;;;5047947;28;20373;-81
2022/05/12 06:42:15;;;;;;;6.70;4.30;;;;;;;;;;5044865;28;20067;-80
2022/05/12 06:44:44;;;;;;;5.35;3.40;;;;;;;;;;5046792;28;20025;-81
2022/05/12 06:47:13;;;;;;;8.88;4.18;;;;;;;;;;5047555;28;20106;-83
2022/05/12 06:49:39;;;;;;;5.15;3.83;;;;;;;;;;5045976;28;20032;-78
2022/05/12 06:52:05;;;;;;;5.65;3.25;;;;;;;;;;5043986;28;20123;-83
2022/05/12 06:54:40;;;;;;;8.23;3.63;;;;;;;;;;5046928;28;20071;-81
2022/05/12 06:57:06;;;;;;;4.43;3.05;;;;;;;;;;5042532;28;20056;-81
2022/05/12 06:59:36;;;;;;;7.35;3.28;;;;;;;;;;5050523;28;20032;-79
2022/05/12 07:02:08;;;;;;;4.47;2.97;;;;;;;;;;5049660;28;20444;-81
2022/05/12 07:04:33;;;;;;;6.80;3.25;;;;;;;;;;5022118;28;20063;-77
2022/05/12 07:06:59;;;;;;;4.65;2.58;;;;;;;;;;5050879;28;20090;-78
2022/05/12 07:09:26;;;;;;;3.90;2.78;;;;;;;;;;5047779;28;20032;-81
2022/05/12 07:11:54;;;;;;;12.52;2.88;;;;;;;;;;5049510;28;20032;-82
2022/05/12 07:14:21;;;;;;;14.40;3.08;;;;;;;;;;5051158;28;20033;-81
2022/05/12 07:16:47;;;;;;;4.18;3.22;;;;;;;;;;5052982;28;20225;-81
2022/05/12 07:19:15;;;;;;;7.05;3.47;;;;;;;;;;5049821;28;20109;-82
2022/05/12 07:27:15;;;;;;;4.22;3.25;;;;;;;;;;5053219;28;20082;-82
2022/05/12 07:29:41;;;;;;;12.00;4.15;;;;;;;;;;5052424;28;20021;-78
2022/05/12 07:32:07;;;;;;;7.90;3.10;;;;;;;;;;5051540;28;20505;-80
2022/05/12 07:34:33;;;;;;;4.10;3.67;;;;;;;;;;5034270;28;20170;-81
2022/05/12 07:36:59;;;;;;;5.32;3.72;;;;;;;;;;5050358;28;20053;-83
2022/05/12 07:39:29;;;;;;;3.42;3.13;;;;;;;;;;5041151;28;20377;-82
2022/05/12 07:41:57;;;;;;;4.88;3.30;;;;;;;;;;5052599;28;20246;-79
2022/05/12 07:44:31;;;;;;;7.07;3.13;;;;;;;;;;5052931;28;20482;-83
2022/05/12 07:47:00;;;;;;;11.23;2.95;;;;;;;;;;5052935;28;20021;-82
2022/05/12 07:49:28;;;;;;;12.48;2.38;;;;;;;;;;5049138;28;20037;-81
2022/05/12 07:51:54;;;;;;;12.05;2.08;;;;;;;;;;5052881;28;20032;-81
2022/05/12 07:54:20;;;;;;;6.10;3.05;;;;;;;;;;5052537;28;20036;-82
2022/05/12 07:56:46;;;;;;;7.43;2.00;;;;;;;;;;5049066;28;20017;-84
2022/05/12 07:59:11;;;;;;;5.80;2.00;;;;;;;;;;5053268;28;20379;-82
2022/05/12 08:01:38;;;;;;;6.80;2.30;;;;;;;;;;5051328;28;20123;-82
2022/05/12 08:04:07;;;;;;;6.43;2.17;;;;;;;;;;5052279;28;20064;-82
2022/05/12 08:06:34;;;;;;;6.72;2.33;;;;;;;;;;5050712;28;20059;-82
2022/05/12 08:09:05;;;;;;;2.67;2.05;;;;;;;;;;5033056;28;20256;-79
2022/05/12 08:11:31;;;;;;;8.05;1.90;;;;;;;;;;5049506;28;20060;-78
2022/05/12 08:14:02;;;;;;;8.52;2.03;;;;;;;;;;5051574;28;20052;-81
2022/05/12 08:16:28;;;;;;;;;;;;;;;;;;5050534;28;20039;-82
2022/05/12 08:18:56;;;;;;;6.68;3.13;;;;;;;;;;5049210;28;19907;-80
2022/05/12 08:21:24;;;;;;;9.05;1.83;;;;;;;;;;5029937;28;20141;-79
2022/05/12 08:23:50;;;;;;;4.07;1.70;;;;;;;;;;5039125;28;20097;-78
2022/05/12 08:26:22;;;;;;;3.42;1.42;;;;;;;;;;5051878;28;20021;-80
2022/05/12 08:28:50;;;;;;;2.85;1.42;;;;;;;;;;5048166;28;20017;-79
2022/05/12 08:31:45;;;;;;;12.02;2.10;;;;;;;;;;5049192;28;20060;-82
2022/05/12 08:34:11;;;;;;;4.68;1.70;;;;;;;;;;5040991;28;20013;-79
2022/05/12 08:36:38;;;;;;;3.85;2.17;;;;;;;;;;5050903;28;20111;-82
2022/05/12 08:39:04;;;;;;;10.27;2.10;;;;;;;;;;5047452;28;20031;-82
2022/05/12 08:41:53;;;;;;;4.50;1.80;;;;;;;;;;5033076;28;20032;-83
2022/05/12 08:44:24;;;;;;;96.88;11.20;;;;;;;;;;5047899;28;20084;-83
2022/05/12 08:47:00;;;;;;;3.72;1.52;;;;;;;;;;5047089;28;20068;-83
2022/05/12 08:49:32;;;;;;;6.05;2.33;;;;;;;;;;5049826;28;20102;-80
2022/05/12 08:52:26;;;;;;;9.40;2.25;;;;;;;;;;5050959;28;20112;-83
2022/05/12 08:55:01;;;;;;;5.00;2.50;;;;;;;;;;5049671;28;20021;-79
2022/05/12 08:57:56;;;;;;;13.38;2.55;;;;;;;;;;5049286;28;20508;-79
2022/05/12 09:00:30;;;;;;;10.45;2.58;;;;;;;;;;5028612;28;20033;-79
2022/05/12 09:03:21;;;;;;;6.93;2.38;;;;;;;;;;5049299;28;20035;-80
2022/05/12 09:06:01;;;;;;;9.10;3.17;;;;;;;;;;5044577;28;20115;-81
2022/05/12 09:08:54;;;;;;;5.82;2.47;;;;;;;;;;5050785;28;20110;-80
2022/05/12 09:11:31;;;;;;;9.25;2.80;;;;;;;;;;5049136;28;20028;-82
2022/05/12 09:13:59;;;;;;;11.35;3.75;;;;;;;;;;5050710;28;20112;-80
2022/05/12 09:16:29;;;;;;;8.73;3.90;;;;;;;;;;5047309;28;20029;-80
2022/05/12 09:18:56;;;;;;;10.70;2.95;;;;;;;;;;5049046;28;20698;-81
2022/05/12 09:21:29;;;;;;;12.32;2.47;;;;;;;;;;5048453;28;20032;-83
2022/05/12 09:23:56;;;;;;;3.25;2.25;;;;;;;;;;5047084;28;20025;-82
2022/05/12 09:26:46;;;;;;;5.57;2.50;;;;;;;;;;5047858;28;20056;-82
2022/05/12 09:29:21;;;;;;;5.10;3.13;;;;;;;;;;5048164;28;20046;-82
2022/05/12 09:31:53;;;;;;;6.65;2.35;;;;;;;;;;5035461;28;20091;-79
2022/05/12 09:34:31;;;;;;;8.10;2.55;;;;;;;;;;5045350;28;20120;-82
2022/05/12 09:37:18;;;;;;;7.65;2.75;;;;;;;;;;5043037;28;20036;-80
2022/05/12 09:39:58;;;;;;;6.03;2.90;;;;;;;;;;5047931;28;20060;-82
2022/05/12 09:42:27;;;;;;;3.17;2.25;;;;;;;;;;5038406;28;20033;-80
2022/05/12 09:44:56;;;;;;;6.03;2.50;;;;;;;;;;5045016;28;20199;-82
2022/05/12 09:47:22;;;;;;;7.47;2.72;;;;;;;;;;5047540;28;20033;-79
2022/05/12 09:49:48;;;;;;;7.20;2.50;;;;;;;;;;5046156;28;20207;-82
2022/05/12 09:52:18;;;;;;;14.68;3.00;;;;;;;;;;5047512;28;20224;-80
2022/05/12 09:54:45;;;;;;;11.35;3.00;;;;;;;;;;5049328;28;20480;-83
2022/05/12 09:57:30;;;;;;;3.30;2.30;;;;;;;;;;5048975;28;20091;-82
2022/05/12 09:59:58;;;;;;;6.97;2.40;;;;;;;;;;5039797;28;20033;-80
2022/05/12 10:08:24;;;;;;;5.18;2.28;;;;;;;;;;5049439;28;20102;-79
2022/05/12 10:10:59;;;;;;;4.70;2.10;;;;;;;;;;5045327;28;20029;-80
2022/05/12 10:13:46;;;;;;;2.50;2.17;;;;;;;;;;5025765;28;20043;-79
2022/05/12 10:16:16;;;;;;;6.55;2.47;;;;;;;;;;5044730;28;20041;-77
2022/05/12 10:18:54;;;;;;;3.05;1.83;;;;;;;;;;5028560;28;20023;-79
2022/05/12 10:21:43;;;;;;;7.88;1.92;;;;;;;;;;5040182;28;20481;-80
2022/05/12 10:24:41;;;;;;;4.50;1.73;;;;;;;;;;5047087;28;20033;-80
2022/05/12 10:27:17;;;;;;;7.47;2.17;;;;;;;;;;5042544;28;20039;-77
2022/05/12 10:30:16;;;;;;;4.68;2.10;;;;;;;;;;5044292;28;20352;-78
2022/05/12 10:33:15;;;;;;;9.52;2.10;;;;;;;;;;5044331;28;20052;-80
2022/05/12 10:35:43;;;;;;;3.25;1.83;;;;;;;;;;5046917;28;20112;-80
2022/05/12 10:38:20;;;;;;;5.63;2.45;;;;;;;;;;5049303;28;20048;-79
2022/05/12 10:40:53;;;;;;;6.97;2.22;;;;;;;;;;5044750;28;20048;-79
2022/05/12 10:43:53;;;;;;;5.32;1.98;;;;;;;;;;5045781;28;20039;-78
2022/05/12 10:46:32;;;;;;;5.45;1.90;;;;;;;;;;5050500;28;20025;-78
2022/05/12 10:49:28;;;;;;;6.40;2.60;;;;;;;;;;5047579;28;20051;-78
2022/05/12 10:52:30;;;;;;;12.20;2.17;;;;;;;;;;5045100;28;20028;-75
2022/05/12 10:55:18;;;;;;;6.38;2.17;;;;;;;;;;5045065;28;20035;-75
2022/05/12 10:58:19;;;;;;;4.88;2.25;;;;;;;;;;5038003;28;20067;-76
2022/05/12 11:00:53;;;;;;;3.28;1.67;;;;;;;;;;5047880;28;20979;-76
2022/05/12 11:03:24;;;;;;;2.67;1.73;;;;;;;;;;5043064;28;20496;-79
2022/05/12 11:06:03;;;;;;;4.90;1.42;;;;;;;;;;5045865;28;20052;-79
2022/05/12 11:08:37;;;;;;;7.22;2.78;;;;;;;;;;5048366;28;20376;-77
2022/05/12 11:11:15;;;;;;;2.65;2.08;;;;;;;;;;5037248;28;20487;-80
2022/05/12 11:13:57;;;;;;;5.18;1.80;;;;;;;;;;5044158;28;20048;-76
2022/05/12 11:16:41;;;;;;;7.03;1.80;;;;;;;;;;5046358;28;20448;-80
2022/05/12 11:19:20;;;;;;;6.55;2.05;;;;;;;;;;5049621;28;20460;-77
2022/05/12 11:22:20;;;;;;;5.00;1.65;;;;;;;;;;5046575;28;20052;-81
2022/05/12 11:25:09;;;;;;;5.28;1.90;;;;;;;;;;5044188;28;20033;-78
2022/05/12 11:31:37;;;;;;;4.15;1.75;;;;;;;;;;5050392;28;20122;-84
2022/05/12 11:34:08;;;;;;;4.93;1.50;;;;;;;;;;5049932;28;20583;-80
2022/05/12 11:36:38;;;;;;;10.77;1.63;;;;;;;;;;5048244;28;20051;-79
2022/05/12 11:39:39;;;;;;;4.32;1.85;;;;;;;;;;5036083;28;20084;-78
2022/05/12 11:42:20;;;;;;;6.82;1.73;;;;;;;;;;5044312;28;20048;-77
2022/05/12 11:45:06;;;;;;;5.38;1.40;;;;;;;;;;5045797;28;20060;-81
2022/05/12 11:48:01;;;;;;;3.97;1.45;;;;;;;;;;5048496;28;20029;-79
2022/05/12 11:50:52;;;;;;;5.03;1.77;;;;;;;;;;5049365;28;20032;-79
2022/05/12 11:53:24;;;;;;;4.60;1.73;;;;;;;;;;5044748;28;20064;-79
2022/05/12 11:56:10;;;;;;;5.60;1.75;;;;;;;;;;5034724;28;20036;-79
2022/05/12 11:58:44;;;;;;;3.80;1.60;;;;;;;;;;5046121;28;20029;-78
2022/05/12 12:01:32;;;;;;;3.40;1.52;;;;;;;;;;5046220;28;20087;-78
2022/05/12 12:04:03;;;;;;;3.40;1.35;;;;;;;;;;5048100;28;20115;-79
2022/05/12 12:06:43;;;;;;;4.55;1.52;;;;;;;;;;5041552;28;20077;-77
2022/05/12 12:09:44;;;;;;;3.15;1.27;;;;;;;;;;5050281;28;20041;-79
2022/05/12 12:12:31;;;;;;;5.07;1.60;;;;;;;;;;5015751;28;20049;-79
2022/05/12 12:15:08;;;;;;;7.68;1.55;;;;;;;;;;5048113;28;20367;-79
2022/05/12 12:17:37;;;;;;;8.15;2.10;;;;;;;;;;5050467;28;20461;-78
2022/05/12 12:20:11;;;;;;;3.92;1.60;;;;;;;;;;5046838;28;20413;-77
2022/05/12 12:22:46;;;;;;;5.28;2.10;;;;;;;;;;5044063;28;20390;-78
2022/05/12 12:25:19;;;;;;;2.88;1.60;;;;;;;;;;5045219;28;20036;-78
2022/05/12 12:27:55;;;;;;;1.85;1.40;;;;;;;;;;5037629;28;20029;-79
2022/05/12 12:30:58;;;;;;;3.83;2.00;;;;;;;;;;5046906;28;20040;-77
2022/05/12 12:33:29;;;;;;;4.53;1.48;;;;;;;;;;5039763;28;20041;-78
2022/05/12 12:36:00;;;;;;;4.57;1.40;;;;;;;;;;5042864;28;20017;-77
2022/05/12 12:38:44;;;;;;;2.63;1.65;;;;;;;;;;5043999;28;20042;-78
2022/05/12 12:41:29;;;;;;;10.63;1.60;;;;;;;;;;5046138;28;20067;-77
2022/05/12 12:44:18;;;;;;;8.18;1.48;;;;;;;;;;5043541;28;20072;-77
2022/05/12 12:46:59;;;;;;;3.53;1.30;;;;;;;;;;5044627;28;20028;-81
2022/05/12 12:49:43;;;;;;;3.33;1.27;;;;;;;;;;5043807;28;20714;-79
2022/05/12 12:52:11;;;;;;;5.50;1.60;;;;;;;;;;5041328;28;20043;-77
2022/05/12 12:57:28;;;;;;;2.95;1.65;;;;;;;;;;5046426;28;20134;-79
2022/05/12 13:00:02;;;;;;;6.45;1.60;;;;;;;;;;5044235;28;20029;-80
2022/05/12 13:02:32;;;;;;;4.75;1.70;;;;;;;;;;5041593;28;20051;-78
2022/05/12 13:05:03;;;;;;;2.42;1.42;;;;;;;;;;5047265;28;20053;-79
2022/05/12 13:07:30;;;;;;;;;;;;;;;;;;5047285;28;20025;-78
2022/05/12 13:09:57;;;;;;;4.07;1.52;;;;;;;;;;5047691;28;20011;-76
2022/05/12 13:12:26;;;;;;;3.30;1.35;;;;;;;;;;5049606;28;20025;-78
2022/05/12 13:14:53;;;;;;;4.32;1.70;;;;;;;;;;5049539;28;20029;-78
2022/05/12 13:17:21;;;;;;;2.78;1.83;;;;;;;;;;5050482;28;20025;-77
2022/05/12 13:19:48;;;;;;;1.30;1.20;;;;;;;;;;5050889;28;20053;-78
2022/05/12 13:22:26;;;;;;;1.92;1.20;;;;;;;;;;5050496;28;20029;-78
2022/05/12 13:24:52;;;;;;;3.53;1.30;;;;;;;;;;5051128;28;20036;-76
2022/05/12 13:27:22;;;;;;;4.90;1.40;;;;;;;;;;5031675;28;20086;-78
2022/05/12 13:29:48;;;;;;;5.20;1.08;;;;;;;;;;5043227;28;20500;-78
2022/05/12 13:32:53;;;;;;;2.22;1.10;;;;;;;;;;5048342;28;20033;-79
2022/05/12 13:35:29;;;;;;;3.03;1.40;;;;;;;;;;5049164;28;20051;-80
2022/05/12 13:38:10;;;;;;;4.57;1.80;;;;;;;;;;5048416;28;20075;-80
2022/05/12 13:40:51;;;;;;;6.40;1.58;;;;;;;;;;5050565;28;20044;-77
2022/05/12 13:43:28;;;;;;;7.75;1.33;;;;;;;;;;5049554;28;20399;-77
2022/05/12 13:46:09;;;;;;;6.88;1.30;;;;;;;;;;5032599;28;20028;-78
2022/05/12 13:48:50;;;;;;;5.18;1.38;;;;;;;;;;5028779;28;20458;-77
2022/05/12 13:51:52;;;;;;;3.25;1.25;;;;;;;;;;5029553;28;20444;-77
2022/05/12 13:54:37;;;;;;;3.15;1.30;;;;;;;;;;5032810;28;20131;-77
2022/05/12 13:57:31;;;;;;;7.60;1.65;;;;;;;;;;5033647;28;20040;-74
2022/05/12 14:00:01;;;;;;;3.55;1.15;;;;;;;;;;5033086;28;20021;-78
2022/05/12 14:02:41;;;;;;;1.60;1.00;;;;;;;;;;5037084;28;20390;-77
2022/05/12 14:05:19;;;;;;;7.18;1.48;;;;;;;;;;5034108;28;20029;-77
2022/05/12 14:08:06;;;;;;;6.93;1.55;;;;;;;;;;5050190;28;20021;-78
2022/05/12 14:11:03;;;;;;;8.38;2.28;;;;;;;;;;5051646;28;20033;-80
2022/05/12 14:19:24;;;;;;;6.55;1.52;;;;;;;;;;5050857;28;20064;-78
2022/05/12 14:21:53;;;;;;;1.88;1.13;;;;;;;;;;5046786;28;20440;-77
2022/05/12 14:24:21;;;;;;;2.70;1.23;;;;;;;;;;5043164;28;20021;-76
2022/05/12 14:26:47;;;;;;;2.95;1.45;;;;;;;;;;5050389;28;20053;-76
2022/05/12 14:29:14;;;;;;;3.22;1.30;;;;;;;;;;5051274;28;20049;-77
2022/05/12 14:31:44;;;;;;;5.05;1.77;;;;;;;;;;5051623;28;20020;-78
2022/05/12 14:34:11;;;;;;;3.25;1.10;;;;;;;;;;5033004;28;20029;-76
2022/05/12 14:36:37;;;;;;;3.75;1.23;;;;;;;;;;5032302;28;20084;-78
2022/05/12 14:39:05;;;;;;;1.95;0.90;;;;;;;;;;5049209;28;20132;-77
2022/05/12 14:41:31;;;;;;;2.00;1.38;;;;;;;;;;5032714;28;20037;-75
2022/05/12 14:43:58;;;;;;;4.68;1.25;;;;;;;;;;5050692;28;20036;-77
2022/05/12 14:46:33;;;;;;;4.75;1.50;;;;;;;;;;5038563;28;20385;-79
2022/05/12 14:49:00;;;;;;;6.85;1.45;;;;;;;;;;5050224;28;20033;-81
2022/05/12 14:51:26;;;;;;;4.28;1.50;;;;;;;;;;5049831;28;20108;-78
2022/05/12 14:53:54;;;;;;;5.05;1.90;;;;;;;;;;5046061;28;20032;-78
2022/05/12 14:56:20;;;;;;;5.80;1.35;;;;;;;;;;5049647;28;20039;-77
2022/05/12 14:58:46;;;;;;;7.75;2.67;;;;;;;;;;5032921;28;20116;-79
2022/05/12 15:01:15;;;;;;;1.65;1.10;;;;;;;;;;5033552;28;20060;-84
2022/05/12 15:03:41;;;;;;;3.88;1.42;;;;;;;;;;5050525;28;20029;-77
2022/05/12 15:06:07;;;;;;;5.75;1.85;;;;;;;;;;5051940;28;20096;-79
2022/05/12 15:08:33;;;;;;;3.75;1.42;;;;;;;;;;5032956;28;20052;-78
2022/05/12 15:10:58;;;;;;;4.30;1.27;;;;;;;;;;5050509;28;20028;-78
2022/05/12 15:13:24;;;;;;;2.72;1.38;;;;;;;;;;5049729;28;20021;-78
2022/05/12 15:15:50;;;;;;;4.18;1.52;;;;;;;;;;5052511;28;20032;-81
2022/05/12 15:18:16;;;;;;;4.65;1.23;;;;;;;;;;5051104;28;20100;-78
2022/05/12 15:20:42;;;;;;;3.97;1.45;;;;;;;;;;5037407;28;20453;-80
2022/05/12 15:23:08;;;;;;;5.75;1.67;;;;;;;;;;5037345;28;20133;-79
2022/05/12 15:25:34;;;;;;;2.50;1.42;;;;;;;;;;5055559;28;20358;-77
2022/05/12 15:28:00;;;;;;;3.95;1.25;;;;;;;;;;5055152;28;20083;-78
2022/05/12 15:30:26;;;;;;;5.25;1.40;;;;;;;;;;5055214;28;20033;-77
2022/05/12 15:32:54;;;;;;;4.32;1.25;;;;;;;;;;5053792;28;20449;-80
2022/05/12 15:35:22;;;;;;;2.80;1.73;;;;;;;;;;5053075;28;20039;-79